Airfield :
LOGIN :

Register | Disclaimer

   EN    FR    IT 

 










Legend :    VFR   Marginal VFR   IFR   Intensive IFR   Very Intensive IFR
Visi :
Ceiling :
>= 8 km
>= 3000ft
5 to 8 km
1000 to 3000 ft
1500m to 5 km
500 to 1000 ft
800 to 1500m
200 to 500 ft
< 800m
< 200 ft
Symbols :   Thunderstorms  Fog  Heavy snow  Heavy precipitations  Wind > 20 kt
SIGMETs :     Misc.  Thunderstorms  Icing  Turbulence  Mountain Waves  Volcanic Ashes







- Airport Elevation : 359 ft
- IATA code : BVA
- Download approach charts


LFOB - Beauvais

CURRENT METAR :
  • 111330Z AUTO 15002KT 9999 FEW008 08/06 Q1024 NOSIG

EXPIRED METARs :
  • 111300Z AUTO VRB03KT 9999 FEW006 BKN042 08/06 Q1025 TEMPO 3000 BR BKN006
  • 111230Z AUTO 09003KT 7000 FEW003 SCT007 BKN043 07/06 Q1025 NOSIG
  • 111200Z AUTO VRB03KT 1900 0700 R30/1400U R12/1400D BCFG BKN004 06/05 Q1025 BECMG 8000 NSW SCT040
  • 111130Z AUTO VRB02KT 9000 FEW004 07/05 Q1025 NOSIG
  • 111100Z AUTO 13002KT 6000 SCT002 BKN042 06/05 Q1026 NOSIG

TAF AMD TAF LFOB
Valid from the 11 at 12:00 until the 12 at 12:00 UTC


111222Z 1112/1212 16005KT 8000 SCT040
TEMPO 1112/1114 3000 BR BKN006
BECMG 1202/1204 0500 FZFG VV///
BECMG 1207/1210 6000 NSW OVC006
ATIS : +33 3 44 11 49 28
No reported NOTAMs for that airfield.



MET'MAP, your aeronautical weather chart ! - Copyright ORBIFLY December 2007 - Disclaimer

ORBIFLY MET'MAP TEAM :

Programming & Development : Alexandra Zaïnal
Concept & Development : Baudouin d'Aumeries
Co-Development & Prog : Marc-Olivier Méhu
Technical & hardware support : Manuel Goepfert

Contact : metmap@orbifly.com




SOURCES & CREDITS :

   NOAA